sensor_id;sensor_type;location;lat;lon;timestamp;pressure;altitude;pressure_sealevel;temperature;humidity
56176;BME280;63065;51.082;17.016;2023-03-22T00:02:19;100117.56;;;15.17;39.85
56176;BME280;63065;51.082;17.016;2023-03-22T00:04:45;100116.08;;;15.39;39.86
56176;BME280;63065;51.082;17.016;2023-03-22T00:07:11;100112.00;;;15.32;39.56
56176;BME280;63065;51.082;17.016;2023-03-22T00:09:37;100105.36;;;15.58;39.96
56176;BME280;63065;51.082;17.016;2023-03-22T00:12:03;100099.49;;;15.66;39.73
56176;BME280;63065;51.082;17.016;2023-03-22T00:14:28;100097.59;;;15.37;39.69
56176;BME280;63065;51.082;17.016;2023-03-22T00:16:53;100097.46;;;15.62;39.73
56176;BME280;63065;51.082;17.016;2023-03-22T00:19:19;100093.02;;;15.38;39.79
56176;BME280;63065;51.082;17.016;2023-03-22T00:21:45;100088.78;;;15.51;39.90
56176;BME280;63065;51.082;17.016;2023-03-22T00:24:10;100084.74;;;15.39;40.05
56176;BME280;63065;51.082;17.016;2023-03-22T00:26:36;100082.33;;;15.40;40.02
56176;BME280;63065;51.082;17.016;2023-03-22T00:29:02;100079.58;;;15.64;39.97
56176;BME280;63065;51.082;17.016;2023-03-22T00:31:26;100074.82;;;15.45;39.87
56176;BME280;63065;51.082;17.016;2023-03-22T00:33:52;100073.33;;;15.21;39.98
56176;BME280;63065;51.082;17.016;2023-03-22T00:36:17;100072.50;;;15.66;39.88
56176;BME280;63065;51.082;17.016;2023-03-22T00:38:42;100071.66;;;15.40;40.10
56176;BME280;63065;51.082;17.016;2023-03-22T00:41:11;100065.08;;;15.40;39.99
56176;BME280;63065;51.082;17.016;2023-03-22T00:43:34;100057.84;;;15.45;39.95
56176;BME280;63065;51.082;17.016;2023-03-22T00:46:01;100054.46;;;15.45;39.94
56176;BME280;63065;51.082;17.016;2023-03-22T00:48:24;100053.04;;;15.61;39.90
56176;BME280;63065;51.082;17.016;2023-03-22T00:50:50;100046.42;;;15.63;40.09
56176;BME280;63065;51.082;17.016;2023-03-22T00:53:14;100046.51;;;15.64;40.05
56176;BME280;63065;51.082;17.016;2023-03-22T00:55:40;100045.42;;;15.69;39.87
56176;BME280;63065;51.082;17.016;2023-03-22T00:58:05;100046.46;;;15.51;39.67
56176;BME280;63065;51.082;17.016;2023-03-22T01:00:30;100041.66;;;15.50;39.90
56176;BME280;63065;51.082;17.016;2023-03-22T01:02:56;100043.44;;;15.46;39.93
56176;BME280;63065;51.082;17.016;2023-03-22T01:05:21;100043.35;;;15.71;39.86
56176;BME280;63065;51.082;17.016;2023-03-22T01:07:47;100038.83;;;15.52;40.06
56176;BME280;63065;51.082;17.016;2023-03-22T01:10:12;100039.54;;;15.50;39.96
56176;BME280;63065;51.082;17.016;2023-03-22T01:12:37;100038.38;;;15.45;39.99
56176;BME280;63065;51.082;17.016;2023-03-22T01:15:03;100032.31;;;15.47;40.06
56176;BME280;63065;51.082;17.016;2023-03-22T01:17:28;100028.33;;;15.50;39.92
56176;BME280;63065;51.082;17.016;2023-03-22T01:19:54;100024.70;;;15.57;39.83
56176;BME280;63065;51.082;17.016;2023-03-22T01:22:19;100021.98;;;15.84;39.83
56176;BME280;63065;51.082;17.016;2023-03-22T01:24:45;100020.44;;;15.88;39.83
56176;BME280;63065;51.082;17.016;2023-03-22T01:27:10;100018.37;;;15.84;40.00
56176;BME280;63065;51.082;17.016;2023-03-22T01:29:36;100014.79;;;15.63;39.95
56176;BME280;63065;51.082;17.016;2023-03-22T01:32:01;100013.89;;;15.66;39.78
56176;BME280;63065;51.082;17.016;2023-03-22T01:34:27;100010.43;;;15.65;39.90
56176;BME280;63065;51.082;17.016;2023-03-22T01:36:52;100010.50;;;15.62;39.80
56176;BME280;63065;51.082;17.016;2023-03-22T01:39:17;100012.13;;;15.66;39.84
56176;BME280;63065;51.082;17.016;2023-03-22T01:41:43;100012.01;;;15.62;39.86
56176;BME280;63065;51.082;17.016;2023-03-22T01:44:10;100007.54;;;15.62;39.93
56176;BME280;63065;51.082;17.016;2023-03-22T01:46:34;100005.36;;;15.39;39.73
56176;BME280;63065;51.082;17.016;2023-03-22T01:49:01;100003.04;;;15.88;40.00
56176;BME280;63065;51.082;17.016;2023-03-22T01:51:25;99998.32;;;15.70;39.90
56176;BME280;63065;51.082;17.016;2023-03-22T01:53:51;99997.08;;;15.74;39.80
56176;BME280;63065;51.082;17.016;2023-03-22T01:56:16;99995.60;;;15.91;39.89
56176;BME280;63065;51.082;17.016;2023-03-22T01:58:42;99994.33;;;15.83;40.00
56176;BME280;63065;51.082;17.016;2023-03-22T02:01:09;99990.52;;;15.79;40.00
56176;BME280;63065;51.082;17.016;2023-03-22T02:03:37;99990.20;;;15.75;40.45
56176;BME280;63065;51.082;17.016;2023-03-22T02:05:57;99988.45;;;15.76;40.62
56176;BME280;63065;51.082;17.016;2023-03-22T02:08:23;99987.84;;;15.58;40.42
56176;BME280;63065;51.082;17.016;2023-03-22T02:10:48;99988.71;;;15.78;40.41
56176;BME280;63065;51.082;17.016;2023-03-22T02:13:24;99990.06;;;15.74;40.60
56176;BME280;63065;51.082;17.016;2023-03-22T02:15:43;99988.15;;;15.75;40.81
56176;BME280;63065;51.082;17.016;2023-03-22T02:18:18;99987.24;;;15.72;40.70
56176;BME280;63065;51.082;17.016;2023-03-22T02:20:41;99986.58;;;15.76;40.73
56176;BME280;63065;51.082;17.016;2023-03-22T02:23:07;99982.31;;;15.79;40.56
56176;BME280;63065;51.082;17.016;2023-03-22T02:25:36;99978.01;;;15.62;40.53
56176;BME280;63065;51.082;17.016;2023-03-22T02:30:24;99977.11;;;15.64;40.80
56176;BME280;63065;51.082;17.016;2023-03-22T02:32:47;99978.73;;;15.84;40.67
56176;BME280;63065;51.082;17.016;2023-03-22T02:35:17;99981.28;;;15.59;40.64
56176;BME280;63065;51.082;17.016;2023-03-22T02:37:36;99980.93;;;15.87;40.81
56176;BME280;63065;51.082;17.016;2023-03-22T02:40:00;99982.20;;;15.56;40.71
56176;BME280;63065;51.082;17.016;2023-03-22T02:42:30;99983.29;;;15.81;40.93
56176;BME280;63065;51.082;17.016;2023-03-22T02:44:52;99981.41;;;15.62;40.83
56176;BME280;63065;51.082;17.016;2023-03-22T02:47:19;99978.08;;;15.34;40.67
56176;BME280;63065;51.082;17.016;2023-03-22T02:49:40;99979.15;;;15.85;40.60
56176;BME280;63065;51.082;17.016;2023-03-22T02:52:08;99977.21;;;15.85;40.57
56176;BME280;63065;51.082;17.016;2023-03-22T02:54:31;99974.27;;;15.36;40.77
56176;BME280;63065;51.082;17.016;2023-03-22T02:56:55;99972.36;;;15.88;40.59
56176;BME280;63065;51.082;17.016;2023-03-22T02:59:19;99973.36;;;15.91;40.67
56176;BME280;63065;51.082;17.016;2023-03-22T03:01:47;99975.78;;;15.69;40.64
56176;BME280;63065;51.082;17.016;2023-03-22T03:04:14;99975.78;;;15.70;40.48
56176;BME280;63065;51.082;17.016;2023-03-22T03:06:37;99979.73;;;15.70;40.73
56176;BME280;63065;51.082;17.016;2023-03-22T03:09:02;99982.70;;;15.87;40.80
56176;BME280;63065;51.082;17.016;2023-03-22T03:11:25;99981.37;;;15.60;40.65
56176;BME280;63065;51.082;17.016;2023-03-22T03:13:51;99983.23;;;15.84;40.66
56176;BME280;63065;51.082;17.016;2023-03-22T03:16:19;99982.90;;;15.84;40.53
56176;BME280;63065;51.082;17.016;2023-03-22T03:18:46;99983.39;;;15.66;40.55
56176;BME280;63065;51.082;17.016;2023-03-22T03:21:17;99986.72;;;15.91;40.41
56176;BME280;63065;51.082;17.016;2023-03-22T03:23:39;99989.84;;;15.66;40.53
56176;BME280;63065;51.082;17.016;2023-03-22T03:26:02;99992.07;;;15.63;40.49
56176;BME280;63065;51.082;17.016;2023-03-22T03:28:26;99998.07;;;15.68;40.48
56176;BME280;63065;51.082;17.016;2023-03-22T03:30:54;100005.35;;;15.69;40.48
56176;BME280;63065;51.082;17.016;2023-03-22T03:33:16;100008.62;;;15.94;40.48
56176;BME280;63065;51.082;17.016;2023-03-22T03:35:44;100008.81;;;15.82;40.63
56176;BME280;63065;51.082;17.016;2023-03-22T03:38:08;100009.58;;;15.64;40.60
56176;BME280;63065;51.082;17.016;2023-03-22T03:40:33;100009.70;;;15.92;40.78
56176;BME280;63065;51.082;17.016;2023-03-22T03:42:57;100011.20;;;15.70;40.65
56176;BME280;63065;51.082;17.016;2023-03-22T03:45:22;100012.19;;;15.43;40.60
56176;BME280;63065;51.082;17.016;2023-03-22T03:47:50;100014.22;;;15.74;40.61
56176;BME280;63065;51.082;17.016;2023-03-22T03:50:14;100015.59;;;15.74;40.87
56176;BME280;63065;51.082;17.016;2023-03-22T03:52:37;100017.70;;;15.49;40.86
56176;BME280;63065;51.082;17.016;2023-03-22T03:55:02;100018.49;;;15.49;40.54
56176;BME280;63065;51.082;17.016;2023-03-22T03:57:28;100019.11;;;15.46;40.52
56176;BME280;63065;51.082;17.016;2023-03-22T03:59:53;100021.98;;;15.80;40.70
56176;BME280;63065;51.082;17.016;2023-03-22T04:02:18;100023.09;;;15.80;40.60
56176;BME280;63065;51.082;17.016;2023-03-22T04:04:44;100024.82;;;15.80;40.52
56176;BME280;63065;51.082;17.016;2023-03-22T04:07:09;100024.84;;;15.98;40.99
56176;BME280;63065;51.082;17.016;2023-03-22T04:09:36;100023.61;;;15.39;40.82
56176;BME280;63065;51.082;17.016;2023-03-22T04:12:00;100020.60;;;15.92;40.77
56176;BME280;63065;51.082;17.016;2023-03-22T04:14:25;100017.02;;;15.60;41.07
56176;BME280;63065;51.082;17.016;2023-03-22T04:16:51;100011.75;;;15.69;41.17
56176;BME280;63065;51.082;17.016;2023-03-22T04:19:16;100009.19;;;15.41;41.29
56176;BME280;63065;51.082;17.016;2023-03-22T04:21:42;100004.96;;;15.54;41.39
56176;BME280;63065;51.082;17.016;2023-03-22T04:24:12;100003.85;;;15.25;41.48
56176;BME280;63065;51.082;17.016;2023-03-22T04:26:33;100006.49;;;15.44;41.61
56176;BME280;63065;51.082;17.016;2023-03-22T04:28:58;100007.69;;;15.41;41.65
56176;BME280;63065;51.082;17.016;2023-03-22T04:31:24;100010.36;;;15.39;41.59
56176;BME280;63065;51.082;17.016;2023-03-22T04:33:49;100007.06;;;15.36;41.55
56176;BME280;63065;51.082;17.016;2023-03-22T04:36:14;100007.39;;;15.30;41.85
56176;BME280;63065;51.082;17.016;2023-03-22T04:38:39;100002.64;;;15.28;41.72
56176;BME280;63065;51.082;17.016;2023-03-22T04:41:06;100000.90;;;15.31;41.81
56176;BME280;63065;51.082;17.016;2023-03-22T04:43:30;99996.67;;;15.32;41.55
56176;BME280;63065;51.082;17.016;2023-03-22T04:45:55;99993.59;;;15.32;41.52
56176;BME280;63065;51.082;17.016;2023-03-22T04:48:21;99992.62;;;15.30;41.63
56176;BME280;63065;51.082;17.016;2023-03-22T04:50:46;99986.74;;;15.32;41.78
56176;BME280;63065;51.082;17.016;2023-03-22T04:53:12;99980.69;;;15.31;41.71
56176;BME280;63065;51.082;17.016;2023-03-22T04:55:37;99978.52;;;15.28;41.69
56176;BME280;63065;51.082;17.016;2023-03-22T04:58:03;99972.03;;;15.22;41.85
56176;BME280;63065;51.082;17.016;2023-03-22T05:00:29;99970.59;;;15.28;41.82
56176;BME280;63065;51.082;17.016;2023-03-22T05:02:54;99972.20;;;15.32;41.64
56176;BME280;63065;51.082;17.016;2023-03-22T05:05:20;99971.12;;;15.32;41.71
56176;BME280;63065;51.082;17.016;2023-03-22T05:07:45;99977.19;;;15.35;41.75
56176;BME280;63065;51.082;17.016;2023-03-22T05:10:11;99980.13;;;15.45;41.69
56176;BME280;63065;51.082;17.016;2023-03-22T05:12:36;99979.28;;;15.50;41.54
56176;BME280;63065;51.082;17.016;2023-03-22T05:15:02;99977.77;;;15.49;41.32
56176;BME280;63065;51.082;17.016;2023-03-22T05:17:27;99976.12;;;15.51;41.45
56176;BME280;63065;51.082;17.016;2023-03-22T05:19:53;99977.07;;;15.47;41.59
56176;BME280;63065;51.082;17.016;2023-03-22T05:22:18;99983.06;;;15.52;41.56
56176;BME280;63065;51.082;17.016;2023-03-22T05:24:44;99983.49;;;15.52;41.46
56176;BME280;63065;51.082;17.016;2023-03-22T05:27:10;99977.94;;;15.52;41.41
56176;BME280;63065;51.082;17.016;2023-03-22T05:29:35;99980.16;;;15.81;41.55
56176;BME280;63065;51.082;17.016;2023-03-22T05:32:08;99986.25;;;15.35;41.32
56176;BME280;63065;51.082;17.016;2023-03-22T05:34:26;99987.20;;;15.70;41.12
56176;BME280;63065;51.082;17.016;2023-03-22T05:36:51;99988.25;;;15.75;41.19
56176;BME280;63065;51.082;17.016;2023-03-22T05:39:16;99989.66;;;15.74;41.10
56176;BME280;63065;51.082;17.016;2023-03-22T05:41:41;99994.73;;;15.26;41.26
56176;BME280;63065;51.082;17.016;2023-03-22T05:44:07;99997.94;;;15.76;40.65
56176;BME280;63065;51.082;17.016;2023-03-22T05:46:32;99998.49;;;15.51;41.26
56176;BME280;63065;51.082;17.016;2023-03-22T05:48:58;99991.94;;;15.79;41.08
56176;BME280;63065;51.082;17.016;2023-03-22T05:51:24;99991.35;;;15.85;41.03
56176;BME280;63065;51.082;17.016;2023-03-22T05:53:49;99992.86;;;15.69;40.95
56176;BME280;63065;51.082;17.016;2023-03-22T05:56:15;99993.19;;;15.99;40.85
56176;BME280;63065;51.082;17.016;2023-03-22T05:58:41;99990.66;;;15.84;40.93
56176;BME280;63065;51.082;17.016;2023-03-22T06:01:07;99986.46;;;15.89;40.94
56176;BME280;63065;51.082;17.016;2023-03-22T06:03:32;99988.05;;;16.16;40.87
56176;BME280;63065;51.082;17.016;2023-03-22T06:05:57;99987.42;;;15.96;40.54
56176;BME280;63065;51.082;17.016;2023-03-22T06:08:23;99988.98;;;16.01;40.70
56176;BME280;63065;51.082;17.016;2023-03-22T06:10:49;99988.49;;;16.13;40.61
56176;BME280;63065;51.082;17.016;2023-03-22T06:13:13;99989.05;;;15.92;40.44
56176;BME280;63065;51.082;17.016;2023-03-22T06:15:38;99992.64;;;16.00;40.53
56176;BME280;63065;51.082;17.016;2023-03-22T06:18:03;99988.45;;;16.04;40.42
56176;BME280;63065;51.082;17.016;2023-03-22T06:20:29;99987.65;;;16.41;40.35
56176;BME280;63065;51.082;17.016;2023-03-22T06:22:54;99987.57;;;16.27;40.18
56176;BME280;63065;51.082;17.016;2023-03-22T06:25:20;99993.27;;;16.69;40.02
56176;BME280;63065;51.082;17.016;2023-03-22T06:27:47;99991.96;;;16.49;40.01
56176;BME280;63065;51.082;17.016;2023-03-22T06:30:11;99992.98;;;16.58;39.87
56176;BME280;63065;51.082;17.016;2023-03-22T06:32:36;99991.74;;;16.63;39.86
56176;BME280;63065;51.082;17.016;2023-03-22T06:35:01;99987.20;;;16.73;39.67
56176;BME280;63065;51.082;17.016;2023-03-22T06:37:26;99987.80;;;16.82;39.56
56176;BME280;63065;51.082;17.016;2023-03-22T06:39:52;99986.69;;;16.73;39.40
56176;BME280;63065;51.082;17.016;2023-03-22T06:42:18;99986.84;;;17.06;39.76
56176;BME280;63065;51.082;17.016;2023-03-22T06:44:43;99986.75;;;17.24;39.44
56176;BME280;63065;51.082;17.016;2023-03-22T06:47:09;99988.88;;;16.89;39.53
56176;BME280;63065;51.082;17.016;2023-03-22T06:49:33;99992.87;;;16.97;39.43
56176;BME280;63065;51.082;17.016;2023-03-22T06:51:59;99996.89;;;17.12;39.19
56176;BME280;63065;51.082;17.016;2023-03-22T06:54:24;99999.95;;;17.39;39.18
56176;BME280;63065;51.082;17.016;2023-03-22T06:56:50;99998.43;;;17.21;39.19
56176;BME280;63065;51.082;17.016;2023-03-22T06:59:15;100000.69;;;17.27;39.39
56176;BME280;63065;51.082;17.016;2023-03-22T07:01:41;100003.41;;;17.40;39.20
56176;BME280;63065;51.082;17.016;2023-03-22T07:04:06;100005.90;;;17.54;39.16
56176;BME280;63065;51.082;17.016;2023-03-22T07:06:31;100002.68;;;17.37;38.92
56176;BME280;63065;51.082;17.016;2023-03-22T07:08:57;99999.81;;;17.96;39.04
56176;BME280;63065;51.082;17.016;2023-03-22T07:11:22;99999.99;;;17.72;38.78
56176;BME280;63065;51.082;17.016;2023-03-22T07:13:47;100001.04;;;17.79;38.85
56176;BME280;63065;51.082;17.016;2023-03-22T07:16:13;100002.09;;;17.79;38.73
56176;BME280;63065;51.082;17.016;2023-03-22T07:18:39;100003.37;;;17.82;38.85
56176;BME280;63065;51.082;17.016;2023-03-22T07:21:05;100003.55;;;17.65;38.84
56176;BME280;63065;51.082;17.016;2023-03-22T07:23:29;100005.83;;;18.19;38.95
56176;BME280;63065;51.082;17.016;2023-03-22T07:25:55;100000.90;;;17.77;38.39
56176;BME280;63065;51.082;17.016;2023-03-22T07:28:21;99997.20;;;17.83;38.40
56176;BME280;63065;51.082;17.016;2023-03-22T07:30:47;99995.44;;;18.20;38.61
56176;BME280;63065;51.082;17.016;2023-03-22T07:33:11;99991.37;;;18.37;38.71
56176;BME280;63065;51.082;17.016;2023-03-22T07:35:37;99987.23;;;18.20;37.93
56176;BME280;63065;51.082;17.016;2023-03-22T07:38:03;99987.65;;;18.08;38.43
56176;BME280;63065;51.082;17.016;2023-03-22T07:40:27;99989.00;;;18.28;37.98
56176;BME280;63065;51.082;17.016;2023-03-22T07:42:53;99986.54;;;18.12;38.12
56176;BME280;63065;51.082;17.016;2023-03-22T07:45:19;99983.24;;;18.37;37.69
56176;BME280;63065;51.082;17.016;2023-03-22T07:47:45;99986.00;;;18.49;37.96
56176;BME280;63065;51.082;17.016;2023-03-22T07:50:10;99986.08;;;18.25;38.12
56176;BME280;63065;51.082;17.016;2023-03-22T07:52:34;99985.51;;;18.23;37.87
56176;BME280;63065;51.082;17.016;2023-03-22T07:55:00;99988.56;;;18.55;37.93
56176;BME280;63065;51.082;17.016;2023-03-22T07:57:25;99986.24;;;18.48;38.09
56176;BME280;63065;51.082;17.016;2023-03-22T07:59:50;99984.57;;;18.56;37.69
56176;BME280;63065;51.082;17.016;2023-03-22T08:02:15;99984.18;;;18.62;37.58
56176;BME280;63065;51.082;17.016;2023-03-22T08:04:41;99983.95;;;18.88;37.45
56176;BME280;63065;51.082;17.016;2023-03-22T08:07:06;99982.33;;;18.57;36.81
56176;BME280;63065;51.082;17.016;2023-03-22T08:09:31;99979.60;;;19.08;36.61
56176;BME280;63065;51.082;17.016;2023-03-22T08:11:57;99983.65;;;18.96;36.62
56176;BME280;63065;51.082;17.016;2023-03-22T08:14:22;99983.75;;;19.14;36.79
56176;BME280;63065;51.082;17.016;2023-03-22T08:16:48;99980.29;;;19.28;36.41
56176;BME280;63065;51.082;17.016;2023-03-22T08:19:15;99975.45;;;19.40;36.39
56176;BME280;63065;51.082;17.016;2023-03-22T08:21:39;99973.23;;;19.53;36.43
56176;BME280;63065;51.082;17.016;2023-03-22T08:24:05;99971.44;;;19.29;36.43
56176;BME280;63065;51.082;17.016;2023-03-22T08:26:30;99970.27;;;19.56;36.59
56176;BME280;63065;51.082;17.016;2023-03-22T08:28:55;99970.44;;;19.32;36.16
56176;BME280;63065;51.082;17.016;2023-03-22T08:31:22;99967.87;;;19.58;35.72
56176;BME280;63065;51.082;17.016;2023-03-22T08:33:46;99970.60;;;19.40;34.63
56176;BME280;63065;51.082;17.016;2023-03-22T08:36:13;99972.70;;;19.13;35.97
56176;BME280;63065;51.082;17.016;2023-03-22T08:38:37;99973.06;;;19.26;35.49
56176;BME280;63065;51.082;17.016;2023-03-22T08:41:02;99975.66;;;19.88;34.90
56176;BME280;63065;51.082;17.016;2023-03-22T08:43:27;99976.64;;;18.97;35.16
56176;BME280;63065;51.082;17.016;2023-03-22T08:45:52;99973.95;;;19.36;35.79
56176;BME280;63065;51.082;17.016;2023-03-22T08:48:18;99971.92;;;19.25;36.09
56176;BME280;63065;51.082;17.016;2023-03-22T08:50:44;99970.24;;;19.32;35.17
56176;BME280;63065;51.082;17.016;2023-03-22T08:53:09;99966.76;;;19.37;34.69
56176;BME280;63065;51.082;17.016;2023-03-22T08:55:34;99965.97;;;19.54;35.17
56176;BME280;63065;51.082;17.016;2023-03-22T08:58:01;99964.43;;;19.50;34.11
56176;BME280;63065;51.082;17.016;2023-03-22T09:00:26;99961.38;;;19.24;34.74
56176;BME280;63065;51.082;17.016;2023-03-22T09:02:51;99961.94;;;19.54;35.45
56176;BME280;63065;51.082;17.016;2023-03-22T09:05:18;99958.19;;;19.57;34.39
56176;BME280;63065;51.082;17.016;2023-03-22T09:07:42;99954.86;;;19.20;35.21
56176;BME280;63065;51.082;17.016;2023-03-22T09:10:09;99954.61;;;19.07;35.56
56176;BME280;63065;51.082;17.016;2023-03-22T09:12:34;99955.54;;;19.56;35.25
56176;BME280;63065;51.082;17.016;2023-03-22T09:14:59;99952.17;;;19.35;33.86
56176;BME280;63065;51.082;17.016;2023-03-22T09:17:24;99950.07;;;19.45;35.01
56176;BME280;63065;51.082;17.016;2023-03-22T09:19:49;99949.34;;;19.50;34.11
56176;BME280;63065;51.082;17.016;2023-03-22T09:22:15;99950.88;;;19.52;32.78
56176;BME280;63065;51.082;17.016;2023-03-22T09:24:40;99945.16;;;19.62;33.17
56176;BME280;63065;51.082;17.016;2023-03-22T09:27:06;99945.58;;;19.08;35.43
56176;BME280;63065;51.082;17.016;2023-03-22T09:29:31;99940.31;;;19.64;33.70
56176;BME280;63065;51.082;17.016;2023-03-22T09:31:56;99938.53;;;19.25;33.84
56176;BME280;63065;51.082;17.016;2023-03-22T09:34:22;99939.74;;;19.35;33.54
56176;BME280;63065;51.082;17.016;2023-03-22T09:36:47;99939.64;;;19.50;34.31
56176;BME280;63065;51.082;17.016;2023-03-22T09:39:13;99941.17;;;19.73;33.09
56176;BME280;63065;51.082;17.016;2023-03-22T09:41:43;99938.33;;;19.42;33.99
56176;BME280;63065;51.082;17.016;2023-03-22T09:44:06;99938.59;;;19.61;33.83
56176;BME280;63065;51.082;17.016;2023-03-22T09:46:31;99934.58;;;19.74;33.82
56176;BME280;63065;51.082;17.016;2023-03-22T09:48:54;99930.22;;;20.20;33.84
56176;BME280;63065;51.082;17.016;2023-03-22T09:51:28;99927.18;;;19.91;32.24
56176;BME280;63065;51.082;17.016;2023-03-22T09:53:44;99928.46;;;20.47;32.31
56176;BME280;63065;51.082;17.016;2023-03-22T09:56:15;99925.86;;;20.29;33.10
56176;BME280;63065;51.082;17.016;2023-03-22T09:58:40;99923.81;;;20.44;32.11
56176;BME280;63065;51.082;17.016;2023-03-22T10:01:05;99920.52;;;20.11;32.44
56176;BME280;63065;51.082;17.016;2023-03-22T10:03:41;99916.67;;;20.27;31.88
56176;BME280;63065;51.082;17.016;2023-03-22T10:05:57;99912.37;;;20.49;31.10
56176;BME280;63065;51.082;17.016;2023-03-22T10:08:27;99915.52;;;20.81;32.10
56176;BME280;63065;51.082;17.016;2023-03-22T10:10:44;99916.07;;;20.62;32.10
56176;BME280;63065;51.082;17.016;2023-03-22T10:13:15;99918.96;;;20.22;31.49
56176;BME280;63065;51.082;17.016;2023-03-22T10:15:37;99918.70;;;20.45;32.00
56176;BME280;63065;51.082;17.016;2023-03-22T10:18:02;99918.36;;;20.65;31.72
56176;BME280;63065;51.082;17.016;2023-03-22T10:20:35;99920.27;;;20.51;31.85
56176;BME280;63065;51.082;17.016;2023-03-22T10:22:51;99917.99;;;20.90;31.23
56176;BME280;63065;51.082;17.016;2023-03-22T10:25:20;99913.36;;;20.97;31.65
56176;BME280;63065;51.082;17.016;2023-03-22T10:27:43;99913.37;;;20.89;31.33
56176;BME280;63065;51.082;17.016;2023-03-22T10:30:17;99914.00;;;20.78;30.51
56176;BME280;63065;51.082;17.016;2023-03-22T10:32:39;99911.05;;;20.79;30.50
56176;BME280;63065;51.082;17.016;2023-03-22T10:34:58;99913.27;;;20.56;31.25
56176;BME280;63065;51.082;17.016;2023-03-22T10:37:30;99913.11;;;20.73;30.16
56176;BME280;63065;51.082;17.016;2023-03-22T10:39:52;99913.47;;;20.68;29.92
56176;BME280;63065;51.082;17.016;2023-03-22T10:42:16;99910.80;;;20.96;31.07
56176;BME280;63065;51.082;17.016;2023-03-22T10:44:45;99907.38;;;21.06;30.67
56176;BME280;63065;51.082;17.016;2023-03-22T10:47:06;99908.35;;;21.21;30.48
56176;BME280;63065;51.082;17.016;2023-03-22T10:49:35;99908.13;;;20.44;31.51
56176;BME280;63065;51.082;17.016;2023-03-22T10:52:00;99908.11;;;21.17;30.19
56176;BME280;63065;51.082;17.016;2023-03-22T10:54:23;99902.60;;;21.13;30.04
56176;BME280;63065;51.082;17.016;2023-03-22T10:56:47;99902.79;;;21.54;30.89
56176;BME280;63065;51.082;17.016;2023-03-22T11:01:43;99893.41;;;21.23;30.78
56176;BME280;63065;51.082;17.016;2023-03-22T11:04:07;99891.21;;;21.46;30.70
56176;BME280;63065;51.082;17.016;2023-03-22T11:06:30;99890.17;;;20.66;31.21
56176;BME280;63065;51.082;17.016;2023-03-22T11:08:58;99885.06;;;21.40;30.62
56176;BME280;63065;51.082;17.016;2023-03-22T11:11:22;99883.37;;;21.09;31.56
56176;BME280;63065;51.082;17.016;2023-03-22T11:13:51;99881.56;;;21.19;31.45
56176;BME280;63065;51.082;17.016;2023-03-22T11:16:16;99874.90;;;21.64;30.36
56176;BME280;63065;51.082;17.016;2023-03-22T11:18:36;99868.72;;;21.93;30.94
56176;BME280;63065;51.082;17.016;2023-03-22T11:21:06;99864.66;;;21.61;30.46
56176;BME280;63065;51.082;17.016;2023-03-22T11:23:31;99865.64;;;21.75;30.39
56176;BME280;63065;51.082;17.016;2023-03-22T11:25:55;99863.86;;;21.76;30.50
56176;BME280;63065;51.082;17.016;2023-03-22T11:28:20;99854.60;;;21.43;31.08
56176;BME280;63065;51.082;17.016;2023-03-22T11:33:15;99849.71;;;22.23;30.33
56176;BME280;63065;51.082;17.016;2023-03-22T11:35:36;99846.68;;;22.32;29.86
56176;BME280;63065;51.082;17.016;2023-03-22T11:38:00;99843.27;;;22.06;30.30
56176;BME280;63065;51.082;17.016;2023-03-22T11:40:26;99840.12;;;22.49;29.99
56176;BME280;63065;51.082;17.016;2023-03-22T11:42:53;99838.84;;;22.32;29.75
56176;BME280;63065;51.082;17.016;2023-03-22T11:45:22;99837.96;;;22.46;29.88
56176;BME280;63065;51.082;17.016;2023-03-22T11:47:42;99834.55;;;22.42;29.52
56176;BME280;63065;51.082;17.016;2023-03-22T11:52:32;99822.54;;;22.43;29.76
56176;BME280;63065;51.082;17.016;2023-03-22T11:54:58;99821.03;;;22.65;29.87
56176;BME280;63065;51.082;17.016;2023-03-22T11:57:26;99815.28;;;22.05;30.34
56176;BME280;63065;51.082;17.016;2023-03-22T11:59:55;99808.87;;;21.71;29.09
56176;BME280;63065;51.082;17.016;2023-03-22T12:02:20;99806.16;;;22.59;29.75
56176;BME280;63065;51.082;17.016;2023-03-22T12:04:41;99803.90;;;22.54;29.35
56176;BME280;63065;51.082;17.016;2023-03-22T12:07:12;99800.33;;;22.97;28.63
56176;BME280;63065;51.082;17.016;2023-03-22T12:09:38;99799.75;;;22.61;28.27
56176;BME280;63065;51.082;17.016;2023-03-22T12:11:58;99793.32;;;23.10;28.99
56176;BME280;63065;51.082;17.016;2023-03-22T12:14:25;99793.92;;;23.10;29.37
56176;BME280;63065;51.082;17.016;2023-03-22T12:16:50;99794.61;;;23.12;29.03
56176;BME280;63065;51.082;17.016;2023-03-22T12:19:20;99797.20;;;23.00;29.00
56176;BME280;63065;51.082;17.016;2023-03-22T12:21:38;99794.65;;;23.16;27.89
56176;BME280;63065;51.082;17.016;2023-03-22T12:24:20;99792.50;;;23.40;28.17
56176;BME280;63065;51.082;17.016;2023-03-22T12:26:29;99792.16;;;23.26;28.07
56176;BME280;63065;51.082;17.016;2023-03-22T12:28:57;99792.46;;;23.39;27.96
56176;BME280;63065;51.082;17.016;2023-03-22T12:31:21;99786.82;;;23.46;27.77
56176;BME280;63065;51.082;17.016;2023-03-22T12:33:46;99784.07;;;23.11;27.39
56176;BME280;63065;51.082;17.016;2023-03-22T12:36:15;99779.99;;;23.35;28.34
56176;BME280;63065;51.082;17.016;2023-03-22T12:38:39;99776.94;;;23.29;28.01
56176;BME280;63065;51.082;17.016;2023-03-22T12:41:02;99776.52;;;23.35;27.41
56176;BME280;63065;51.082;17.016;2023-03-22T12:43:37;99772.83;;;23.53;26.65
56176;BME280;63065;51.082;17.016;2023-03-22T12:45:53;99775.67;;;23.19;26.34
56176;BME280;63065;51.082;17.016;2023-03-22T12:48:19;99772.44;;;23.16;25.71